sensor_id;sensor_type;location;lat;lon;timestamp;pressure;altitude;pressure_sealevel;temperature;humidity
71956;BME280;59829;50.562;6.258;2023-05-23T00:06:49;95955.47;;;15.81;100.00
71956;BME280;59829;50.562;6.258;2023-05-23T00:16:50;95949.53;;;15.63;100.00
71956;BME280;59829;50.562;6.258;2023-05-23T00:26:50;95953.63;;;15.56;100.00
71956;BME280;59829;50.562;6.258;2023-05-23T00:36:51;95957.47;;;15.52;100.00
71956;BME280;59829;50.562;6.258;2023-05-23T00:46:53;95952.59;;;15.49;100.00
71956;BME280;59829;50.562;6.258;2023-05-23T00:56:55;95952.91;;;15.46;100.00
71956;BME280;59829;50.562;6.258;2023-05-23T01:06:55;95950.59;;;15.43;100.00
71956;BME280;59829;50.562;6.258;2023-05-23T01:17:00;95947.75;;;15.46;100.00
71956;BME280;59829;50.562;6.258;2023-05-23T01:37:21;95927.22;;;15.26;100.00
71956;BME280;59829;50.562;6.258;2023-05-23T01:47:22;95944.63;;;15.24;100.00
71956;BME280;59829;50.562;6.258;2023-05-23T01:57:22;95934.91;;;15.18;100.00
71956;BME280;59829;50.562;6.258;2023-05-23T02:07:23;95947.06;;;15.08;100.00
71956;BME280;59829;50.562;6.258;2023-05-23T02:17:23;95960.84;;;14.99;100.00
71956;BME280;59829;50.562;6.258;2023-05-23T02:27:24;95972.13;;;14.70;100.00
71956;BME280;59829;50.562;6.258;2023-05-23T02:37:24;95990.63;;;14.56;100.00
71956;BME280;59829;50.562;6.258;2023-05-23T02:47:24;95992.31;;;14.38;100.00
71956;BME280;59829;50.562;6.258;2023-05-23T02:57:25;95994.81;;;14.20;100.00
71956;BME280;59829;50.562;6.258;2023-05-23T03:07:25;95995.91;;;14.17;100.00
71956;BME280;59829;50.562;6.258;2023-05-23T03:17:26;95989.78;;;14.18;100.00
71956;BME280;59829;50.562;6.258;2023-05-23T03:27:26;95994.56;;;14.04;100.00
71956;BME280;59829;50.562;6.258;2023-05-23T03:37:26;96008.44;;;13.93;100.00
71956;BME280;59829;50.562;6.258;2023-05-23T03:47:26;96007.91;;;13.80;100.00
71956;BME280;59829;50.562;6.258;2023-05-23T03:57:27;96026.31;;;13.66;100.00
71956;BME280;59829;50.562;6.258;2023-05-23T04:07:27;96024.97;;;13.62;100.00
71956;BME280;59829;50.562;6.258;2023-05-23T04:17:28;96023.63;;;13.57;100.00
71956;BME280;59829;50.562;6.258;2023-05-23T04:27:29;96034.72;;;13.48;100.00
71956;BME280;59829;50.562;6.258;2023-05-23T04:37:30;96049.09;;;13.41;100.00
71956;BME280;59829;50.562;6.258;2023-05-23T04:47:32;96042.31;;;13.40;100.00
71956;BME280;59829;50.562;6.258;2023-05-23T04:57:34;96047.31;;;13.42;100.00
71956;BME280;59829;50.562;6.258;2023-05-23T05:07:34;96054.88;;;13.34;100.00
71956;BME280;59829;50.562;6.258;2023-05-23T05:17:36;96071.13;;;13.24;100.00
71956;BME280;59829;50.562;6.258;2023-05-23T05:27:38;96070.72;;;13.29;100.00
71956;BME280;59829;50.562;6.258;2023-05-23T05:37:38;96067.47;;;13.27;100.00
71956;BME280;59829;50.562;6.258;2023-05-23T05:47:39;96067.75;;;13.34;100.00
71956;BME280;59829;50.562;6.258;2023-05-23T05:57:39;96079.13;;;13.31;100.00
71956;BME280;59829;50.562;6.258;2023-05-23T06:07:41;96086.97;;;13.30;100.00
71956;BME280;59829;50.562;6.258;2023-05-23T06:17:41;96093.19;;;13.27;100.00
71956;BME280;59829;50.562;6.258;2023-05-23T06:27:43;96094.81;;;13.28;100.00
71956;BME280;59829;50.562;6.258;2023-05-23T06:37:45;96104.56;;;13.24;100.00
71956;BME280;59829;50.562;6.258;2023-05-23T06:47:45;96111.03;;;13.19;100.00
71956;BME280;59829;50.562;6.258;2023-05-23T06:57:47;96115.59;;;13.15;100.00
71956;BME280;59829;50.562;6.258;2023-05-23T07:07:50;96131.03;;;13.15;100.00
71956;BME280;59829;50.562;6.258;2023-05-23T07:17:51;96127.22;;;13.10;100.00
71956;BME280;59829;50.562;6.258;2023-05-23T07:27:51;96126.97;;;13.13;100.00
71956;BME280;59829;50.562;6.258;2023-05-23T07:37:54;96129.75;;;13.21;100.00
71956;BME280;59829;50.562;6.258;2023-05-23T07:47:54;96138.13;;;13.23;100.00
71956;BME280;59829;50.562;6.258;2023-05-23T07:57:55;96149.38;;;13.22;100.00
71956;BME280;59829;50.562;6.258;2023-05-23T08:07:55;96138.13;;;13.23;100.00
71956;BME280;59829;50.562;6.258;2023-05-23T08:17:55;96151.13;;;13.21;100.00
71956;BME280;59829;50.562;6.258;2023-05-23T08:27:57;96161.56;;;13.20;100.00
71956;BME280;59829;50.562;6.258;2023-05-23T08:37:57;96161.56;;;13.20;100.00
71956;BME280;59829;50.562;6.258;2023-05-23T08:47:59;96172.75;;;13.19;100.00
71956;BME280;59829;50.562;6.258;2023-05-23T08:58:00;96169.75;;;13.14;100.00
71956;BME280;59829;50.562;6.258;2023-05-23T09:08:02;96170.91;;;13.21;100.00
71956;BME280;59829;50.562;6.258;2023-05-23T09:18:03;96178.63;;;13.21;100.00
71956;BME280;59829;50.562;6.258;2023-05-23T09:28:03;96184.19;;;13.26;100.00
71956;BME280;59829;50.562;6.258;2023-05-23T09:38:06;96184.72;;;13.20;100.00
71956;BME280;59829;50.562;6.258;2023-05-23T09:48:11;96181.91;;;13.12;100.00
71956;BME280;59829;50.562;6.258;2023-05-23T09:58:12;96189.75;;;13.31;100.00
71956;BME280;59829;50.562;6.258;2023-05-23T10:08:17;96190.53;;;13.62;100.00
71956;BME280;59829;50.562;6.258;2023-05-23T10:18:31;96196.69;;;13.40;100.00
71956;BME280;59829;50.562;6.258;2023-05-23T10:28:34;96206.06;;;13.41;100.00
71956;BME280;59829;50.562;6.258;2023-05-23T10:38:54;96211.81;;;13.34;100.00
71956;BME280;59829;50.562;6.258;2023-05-23T10:48:57;96213.44;;;13.35;100.00
71956;BME280;59829;50.562;6.258;2023-05-23T10:58:58;96216.06;;;13.44;100.00
71956;BME280;59829;50.562;6.258;2023-05-23T11:09:03;96231.78;;;13.41;100.00
71956;BME280;59829;50.562;6.258;2023-05-23T11:29:19;96232.47;;;13.43;100.00
71956;BME280;59829;50.562;6.258;2023-05-23T11:39:21;96250.22;;;13.46;100.00
71956;BME280;59829;50.562;6.258;2023-05-23T11:49:21;96245.59;;;13.40;100.00
71956;BME280;59829;50.562;6.258;2023-05-23T11:59:23;96248.31;;;13.48;100.00
71956;BME280;59829;50.562;6.258;2023-05-23T12:09:25;96244.72;;;13.61;100.00
71956;BME280;59829;50.562;6.258;2023-05-23T12:19:25;96259.22;;;13.62;100.00
71956;BME280;59829;50.562;6.258;2023-05-23T12:29:33;96256.22;;;13.56;100.00
71956;BME280;59829;50.562;6.258;2023-05-23T12:39:35;96258.69;;;13.68;100.00
71956;BME280;59829;50.562;6.258;2023-05-23T12:49:35;96264.78;;;13.67;100.00
71956;BME280;59829;50.562;6.258;2023-05-23T12:59:36;96265.31;;;13.61;100.00
71956;BME280;59829;50.562;6.258;2023-05-23T13:09:36;96265.59;;;13.57;100.00
71956;BME280;59829;50.562;6.258;2023-05-23T13:19:36;96270.28;;;13.52;100.00
71956;BME280;59829;50.562;6.258;2023-05-23T13:29:37;96280.50;;;13.64;100.00
71956;BME280;59829;50.562;6.258;2023-05-23T13:39:37;96281.38;;;13.74;99.62
71956;BME280;59829;50.562;6.258;2023-05-23T13:49:37;96281.50;;;13.82;98.46
71956;BME280;59829;50.562;6.258;2023-05-23T13:59:38;96278.97;;;13.92;96.98
71956;BME280;59829;50.562;6.258;2023-05-23T14:09:38;96268.81;;;13.90;95.26
71956;BME280;59829;50.562;6.258;2023-05-23T14:19:38;96262.44;;;13.94;93.98
71956;BME280;59829;50.562;6.258;2023-05-23T14:29:39;96268.47;;;14.14;92.90
71956;BME280;59829;50.562;6.258;2023-05-23T14:39:39;96257.06;;;14.16;91.22
71956;BME280;59829;50.562;6.258;2023-05-23T14:49:40;96272.78;;;14.13;88.92
71956;BME280;59829;50.562;6.258;2023-05-23T14:59:40;96265.06;;;14.13;87.38
71956;BME280;59829;50.562;6.258;2023-05-23T15:09:40;96256.00;;;14.29;85.73
71956;BME280;59829;50.562;6.258;2023-05-23T15:19:41;96245.41;;;14.32;83.79
71956;BME280;59829;50.562;6.258;2023-05-23T15:29:44;96240.53;;;14.29;81.81
71956;BME280;59829;50.562;6.258;2023-05-23T15:39:44;96244.63;;;14.31;80.34
71956;BME280;59829;50.562;6.258;2023-05-23T15:49:46;96241.63;;;14.36;79.03
71956;BME280;59829;50.562;6.258;2023-05-23T15:59:46;96244.75;;;14.30;77.51
71956;BME280;59829;50.562;6.258;2023-05-23T16:09:46;96242.16;;;14.30;76.20
71956;BME280;59829;50.562;6.258;2023-05-23T16:19:47;96245.16;;;14.25;75.38
71956;BME280;59829;50.562;6.258;2023-05-23T16:29:47;96234.72;;;14.27;74.95
71956;BME280;59829;50.562;6.258;2023-05-23T16:39:47;96232.13;;;14.27;74.09
71956;BME280;59829;50.562;6.258;2023-05-23T16:49:48;96233.50;;;14.31;73.36
71956;BME280;59829;50.562;6.258;2023-05-23T16:59:49;96224.81;;;14.32;72.93
71956;BME280;59829;50.562;6.258;2023-05-23T17:09:49;96225.88;;;14.19;71.96
71956;BME280;59829;50.562;6.258;2023-05-23T17:19:49;96228.59;;;14.18;71.81
71956;BME280;59829;50.562;6.258;2023-05-23T17:29:50;96230.47;;;14.16;71.71
71956;BME280;59829;50.562;6.258;2023-05-23T17:39:51;96235.88;;;14.03;71.29
71956;BME280;59829;50.562;6.258;2023-05-23T17:49:51;96234.53;;;13.99;71.04
71956;BME280;59829;50.562;6.258;2023-05-23T17:59:51;96248.06;;;13.92;70.83
71956;BME280;59829;50.562;6.258;2023-05-23T18:09:52;96257.38;;;13.83;70.76
71956;BME280;59829;50.562;6.258;2023-05-23T18:19:52;96258.56;;;13.69;70.63
71956;BME280;59829;50.562;6.258;2023-05-23T18:29:52;96268.66;;;13.51;70.56
71956;BME280;59829;50.562;6.258;2023-05-23T18:39:53;96263.59;;;13.40;70.39
71956;BME280;59829;50.562;6.258;2023-05-23T18:49:57;96272.09;;;13.31;70.52
71956;BME280;59829;50.562;6.258;2023-05-23T18:59:57;96276.25;;;13.22;70.71
71956;BME280;59829;50.562;6.258;2023-05-23T19:09:57;96284.84;;;13.01;70.64
71956;BME280;59829;50.562;6.258;2023-05-23T19:19:58;96287.06;;;12.84;70.79
71956;BME280;59829;50.562;6.258;2023-05-23T19:29:58;96301.59;;;12.74;71.04
71956;BME280;59829;50.562;6.258;2023-05-23T19:39:58;96317.53;;;12.68;71.26
71956;BME280;59829;50.562;6.258;2023-05-23T19:50:00;96324.13;;;12.50;71.34
71956;BME280;59829;50.562;6.258;2023-05-23T20:00:01;96325.78;;;12.28;71.33
71956;BME280;59829;50.562;6.258;2023-05-23T20:10:02;96335.41;;;12.15;71.62
71956;BME280;59829;50.562;6.258;2023-05-23T20:20:02;96334.00;;;12.00;71.35
71956;BME280;59829;50.562;6.258;2023-05-23T20:30:04;96357.06;;;11.77;71.34
71956;BME280;59829;50.562;6.258;2023-05-23T20:40:05;96361.72;;;11.61;71.47
71956;BME280;59829;50.562;6.258;2023-05-23T20:50:10;96369.41;;;11.50;71.67
71956;BME280;59829;50.562;6.258;2023-05-23T21:00:11;96371.94;;;11.39;71.98
71956;BME280;59829;50.562;6.258;2023-05-23T21:10:12;96374.94;;;11.22;72.05
71956;BME280;59829;50.562;6.258;2023-05-23T21:20:12;96373.38;;;11.08;72.14
71956;BME280;59829;50.562;6.258;2023-05-23T21:30:13;96383.72;;;10.95;72.38
71956;BME280;59829;50.562;6.258;2023-05-23T21:40:14;96378.97;;;10.78;72.61
71956;BME280;59829;50.562;6.258;2023-05-23T21:50:14;96374.94;;;10.63;72.81
71956;BME280;59829;50.562;6.258;2023-05-23T22:00:15;96392.53;;;10.43;72.89
71956;BME280;59829;50.562;6.258;2023-05-23T22:10:17;96389.69;;;10.22;73.15
71956;BME280;59829;50.562;6.258;2023-05-23T22:20:18;96387.84;;;10.12;73.66
71956;BME280;59829;50.562;6.258;2023-05-23T22:30:18;96378.00;;;10.06;73.92
71956;BME280;59829;50.562;6.258;2023-05-23T22:40:18;96374.97;;;9.88;74.21
71956;BME280;59829;50.562;6.258;2023-05-23T22:50:19;96375.22;;;9.72;74.28
71956;BME280;59829;50.562;6.258;2023-05-23T23:00:19;96360.19;;;9.55;74.51
71956;BME280;59829;50.562;6.258;2023-05-23T23:10:20;96362.28;;;9.35;74.52
71956;BME280;59829;50.562;6.258;2023-05-23T23:20:20;96359.44;;;9.27;75.03
71956;BME280;59829;50.562;6.258;2023-05-23T23:30:21;96346.97;;;9.23;75.17
71956;BME280;59829;50.562;6.258;2023-05-23T23:40:21;96353.47;;;9.14;75.35
71956;BME280;59829;50.562;6.258;2023-05-23T23:50:22;96352.84;;;8.98;75.34
